sensor_id;sensor_type;location;lat;lon;timestamp;pressure;altitude;pressure_sealevel;temperature;humidity
60371;BME280;48550;40.588;49.684;2023-05-22T00:00:12;100904.19;;;16.01;100.00
60371;BME280;48550;40.588;49.684;2023-05-22T00:02:38;100894.19;;;16.01;100.00
60371;BME280;48550;40.588;49.684;2023-05-22T00:05:08;100899.31;;;15.98;100.00
60371;BME280;48550;40.588;49.684;2023-05-22T00:07:35;100900.66;;;15.95;100.00
60371;BME280;48550;40.588;49.684;2023-05-22T00:10:00;100901.72;;;15.94;100.00
60371;BME280;48550;40.588;49.684;2023-05-22T00:12:26;100910.38;;;15.91;100.00
60371;BME280;48550;40.588;49.684;2023-05-22T00:14:52;100911.44;;;15.90;100.00
60371;BME280;48550;40.588;49.684;2023-05-22T00:17:18;100913.31;;;15.84;100.00
60371;BME280;48550;40.588;49.684;2023-05-22T00:19:44;100917.91;;;15.84;100.00
60371;BME280;48550;40.588;49.684;2023-05-22T00:22:10;100927.13;;;15.83;100.00
60371;BME280;48550;40.588;49.684;2023-05-22T00:24:36;100925.50;;;15.82;100.00
60371;BME280;48550;40.588;49.684;2023-05-22T00:27:03;100937.38;;;15.81;100.00
60371;BME280;48550;40.588;49.684;2023-05-22T00:29:29;100941.69;;;15.77;100.00
60371;BME280;48550;40.588;49.684;2023-05-22T00:31:55;100941.94;;;15.70;100.00
60371;BME280;48550;40.588;49.684;2023-05-22T00:34:21;100947.59;;;15.69;100.00
60371;BME280;48550;40.588;49.684;2023-05-22T00:36:46;100938.94;;;15.67;100.00
60371;BME280;48550;40.588;49.684;2023-05-22T00:39:12;100936.47;;;15.65;100.00
60371;BME280;48550;40.588;49.684;2023-05-22T00:41:38;100944.06;;;15.68;100.00
60371;BME280;48550;40.588;49.684;2023-05-22T00:44:04;100935.66;;;15.65;100.00
60371;BME280;48550;40.588;49.684;2023-05-22T00:46:32;100934.31;;;15.62;100.00
60371;BME280;48550;40.588;49.684;2023-05-22T00:48:57;100930.69;;;15.56;100.00
60371;BME280;48550;40.588;49.684;2023-05-22T00:51:23;100938.22;;;15.49;100.00
60371;BME280;48550;40.588;49.684;2023-05-22T00:53:49;100931.69;;;15.45;100.00
60371;BME280;48550;40.588;49.684;2023-05-22T00:56:16;100936.53;;;15.43;100.00
60371;BME280;48550;40.588;49.684;2023-05-22T00:58:43;100933.28;;;15.41;100.00
60371;BME280;48550;40.588;49.684;2023-05-22T01:01:09;100943.03;;;15.42;100.00
60371;BME280;48550;40.588;49.684;2023-05-22T01:03:37;100940.59;;;15.41;100.00
60371;BME280;48550;40.588;49.684;2023-05-22T01:06:10;100940.84;;;15.39;100.00
60371;BME280;48550;40.588;49.684;2023-05-22T01:08:36;100945.69;;;15.37;100.00
60371;BME280;48550;40.588;49.684;2023-05-22T01:11:26;100960.00;;;15.33;100.00
60371;BME280;48550;40.588;49.684;2023-05-22T01:14:07;100948.34;;;15.32;100.00
60371;BME280;48550;40.588;49.684;2023-05-22T01:16:49;100950.50;;;15.30;100.00
60371;BME280;48550;40.588;49.684;2023-05-22T01:33:14;100957.59;;;15.36;100.00
60371;BME280;48550;40.588;49.684;2023-05-22T01:35:47;100961.97;;;15.42;100.00
60371;BME280;48550;40.588;49.684;2023-05-22T01:38:16;100976.56;;;15.41;100.00
60371;BME280;48550;40.588;49.684;2023-05-22T01:40:43;100977.72;;;15.50;100.00
60371;BME280;48550;40.588;49.684;2023-05-22T01:43:10;100977.44;;;15.52;100.00
60371;BME280;48550;40.588;49.684;2023-05-22T01:45:37;100962.91;;;15.58;100.00
60371;BME280;48550;40.588;49.684;2023-05-22T01:48:03;100962.16;;;15.63;100.00
60371;BME280;48550;40.588;49.684;2023-05-22T01:50:29;100970.31;;;15.68;100.00
60371;BME280;48550;40.588;49.684;2023-05-22T01:55:42;100978.84;;;15.86;100.00
60371;BME280;48550;40.588;49.684;2023-05-22T02:00:55;100980.28;;;16.04;100.00
60371;BME280;48550;40.588;49.684;2023-05-22T02:03:26;100968.41;;;16.10;100.00
60371;BME280;48550;40.588;49.684;2023-05-22T02:05:57;100970.09;;;16.21;100.00
60371;BME280;48550;40.588;49.684;2023-05-22T02:08:24;100969.84;;;16.28;100.00
60371;BME280;48550;40.588;49.684;2023-05-22T02:10:54;100968.84;;;16.39;100.00
60371;BME280;48550;40.588;49.684;2023-05-22T02:13:20;100969.13;;;16.48;100.00
60371;BME280;48550;40.588;49.684;2023-05-22T02:15:46;100963.22;;;16.61;100.00
60371;BME280;48550;40.588;49.684;2023-05-22T02:18:13;100971.66;;;16.70;100.00
60371;BME280;48550;40.588;49.684;2023-05-22T02:20:39;100967.91;;;16.86;100.00
60371;BME280;48550;40.588;49.684;2023-05-22T02:23:05;100970.91;;;17.00;100.00
60371;BME280;48550;40.588;49.684;2023-05-22T02:25:31;100975.84;;;17.23;100.00
60371;BME280;48550;40.588;49.684;2023-05-22T02:27:57;100983.44;;;17.72;100.00
60371;BME280;48550;40.588;49.684;2023-05-22T02:30:23;100988.06;;;17.82;100.00
60371;BME280;48550;40.588;49.684;2023-05-22T02:32:50;100989.09;;;18.16;100.00
60371;BME280;48550;40.588;49.684;2023-05-22T02:35:15;100990.75;;;18.07;100.00
60371;BME280;48550;40.588;49.684;2023-05-22T02:37:41;100990.47;;;18.03;100.00
60371;BME280;48550;40.588;49.684;2023-05-22T02:40:07;100991.00;;;18.05;100.00
60371;BME280;48550;40.588;49.684;2023-05-22T02:42:34;100993.72;;;18.10;100.00
60371;BME280;48550;40.588;49.684;2023-05-22T02:45:00;100987.75;;;18.08;100.00
60371;BME280;48550;40.588;49.684;2023-05-22T02:47:26;100986.81;;;18.43;100.00
60371;BME280;48550;40.588;49.684;2023-05-22T02:49:52;100990.84;;;18.51;100.00
60371;BME280;48550;40.588;49.684;2023-05-22T02:52:18;101000.06;;;18.60;100.00
60371;BME280;48550;40.588;49.684;2023-05-22T02:54:44;100998.44;;;18.69;100.00
60371;BME280;48550;40.588;49.684;2023-05-22T02:57:09;101005.09;;;18.92;100.00
60371;BME280;48550;40.588;49.684;2023-05-22T02:59:35;100998.59;;;19.32;100.00
60371;BME280;48550;40.588;49.684;2023-05-22T03:02:02;100997.53;;;19.91;100.00
60371;BME280;48550;40.588;49.684;2023-05-22T03:04:28;101003.44;;;20.27;100.00
60371;BME280;48550;40.588;49.684;2023-05-22T03:06:54;100999.19;;;20.64;100.00
60371;BME280;48550;40.588;49.684;2023-05-22T03:09:20;101008.44;;;20.44;100.00
60371;BME280;48550;40.588;49.684;2023-05-22T03:11:46;101011.69;;;20.46;100.00
60371;BME280;48550;40.588;49.684;2023-05-22T03:14:12;101008.44;;;20.44;100.00
60371;BME280;48550;40.588;49.684;2023-05-22T03:16:37;101004.69;;;20.40;100.00
60371;BME280;48550;40.588;49.684;2023-05-22T03:19:08;101011.38;;;20.24;100.00
60371;BME280;48550;40.588;49.684;2023-05-22T03:21:34;101002.91;;;20.25;100.00
60371;BME280;48550;40.588;49.684;2023-05-22T03:24:01;101003.97;;;20.53;100.00
60371;BME280;48550;40.588;49.684;2023-05-22T03:26:26;100998.34;;;20.87;100.00
60371;BME280;48550;40.588;49.684;2023-05-22T03:28:53;101002.84;;;20.97;100.00
60371;BME280;48550;40.588;49.684;2023-05-22T03:31:19;101004.28;;;20.71;100.00
60371;BME280;48550;40.588;49.684;2023-05-22T03:33:45;101002.03;;;20.97;100.00
60371;BME280;48550;40.588;49.684;2023-05-22T03:36:10;100997.19;;;20.93;100.00
60371;BME280;48550;40.588;49.684;2023-05-22T03:38:36;100995.94;;;21.23;100.00
60371;BME280;48550;40.588;49.684;2023-05-22T03:41:02;100997.53;;;21.43;100.00
60371;BME280;48550;40.588;49.684;2023-05-22T03:43:28;100997.47;;;21.11;100.00
60371;BME280;48550;40.588;49.684;2023-05-22T03:45:53;100997.59;;;21.57;100.00
60371;BME280;48550;40.588;49.684;2023-05-22T03:48:19;101002.00;;;21.85;100.00
60371;BME280;48550;40.588;49.684;2023-05-22T03:50:45;101006.69;;;23.31;100.00
60371;BME280;48550;40.588;49.684;2023-05-22T03:53:11;101003.69;;;23.41;100.00
60371;BME280;48550;40.588;49.684;2023-05-22T03:55:37;101018.28;;;24.91;91.84
60371;BME280;48550;40.588;49.684;2023-05-22T03:58:02;101015.38;;;26.88;64.92
60371;BME280;48550;40.588;49.684;2023-05-22T04:00:28;101023.97;;;27.82;54.18
60371;BME280;48550;40.588;49.684;2023-05-22T04:02:54;101029.34;;;28.85;48.11
60371;BME280;48550;40.588;49.684;2023-05-22T04:05:22;101015.50;;;29.65;43.53
60371;BME280;48550;40.588;49.684;2023-05-22T04:07:48;101019.56;;;29.28;42.61
60371;BME280;48550;40.588;49.684;2023-05-22T04:10:14;101020.56;;;30.89;39.16
60371;BME280;48550;40.588;49.684;2023-05-22T04:12:40;101022.09;;;31.22;37.28
60371;BME280;48550;40.588;49.684;2023-05-22T04:15:06;101028.44;;;32.03;35.80
60371;BME280;48550;40.588;49.684;2023-05-22T04:17:38;101030.94;;;31.27;35.59
60371;BME280;48550;40.588;49.684;2023-05-22T04:20:04;101031.00;;;32.38;34.16
60371;BME280;48550;40.588;49.684;2023-05-22T04:22:30;101026.41;;;32.49;32.82
60371;BME280;48550;40.588;49.684;2023-05-22T04:24:57;101028.00;;;32.50;33.13
60371;BME280;48550;40.588;49.684;2023-05-22T04:27:23;101032.72;;;32.73;34.11
60371;BME280;48550;40.588;49.684;2023-05-22T04:29:49;101029.28;;;32.30;36.67
60371;BME280;48550;40.588;49.684;2023-05-22T04:32:16;101030.56;;;30.94;39.45
60371;BME280;48550;40.588;49.684;2023-05-22T04:34:49;101028.03;;;31.05;39.22
60371;BME280;48550;40.588;49.684;2023-05-22T04:37:19;101044.44;;;31.13;39.10
60371;BME280;48550;40.588;49.684;2023-05-22T04:39:45;101032.59;;;30.78;38.70
60371;BME280;48550;40.588;49.684;2023-05-22T04:42:12;101033.25;;;31.45;37.46
60371;BME280;48550;40.588;49.684;2023-05-22T04:44:39;101034.78;;;30.06;40.15
60371;BME280;48550;40.588;49.684;2023-05-22T04:47:09;101028.31;;;28.90;42.55
60371;BME280;48550;40.588;49.684;2023-05-22T04:49:39;101025.44;;;29.26;43.35
60371;BME280;48550;40.588;49.684;2023-05-22T04:52:06;101029.72;;;28.59;43.34
60371;BME280;48550;40.588;49.684;2023-05-22T04:54:32;101028.22;;;28.62;41.57
60371;BME280;48550;40.588;49.684;2023-05-22T04:56:59;101032.75;;;29.47;37.35
60371;BME280;48550;40.588;49.684;2023-05-22T04:59:26;101047.88;;;29.65;35.54
60371;BME280;48550;40.588;49.684;2023-05-22T05:01:52;101039.88;;;30.51;36.17
60371;BME280;48550;40.588;49.684;2023-05-22T05:04:18;101040.66;;;30.20;36.00
60371;BME280;48550;40.588;49.684;2023-05-22T05:06:44;101054.81;;;29.87;37.21
60371;BME280;48550;40.588;49.684;2023-05-22T05:09:10;101047.66;;;28.29;38.33
60371;BME280;48550;40.588;49.684;2023-05-22T05:11:35;101050.28;;;29.10;36.78
60371;BME280;48550;40.588;49.684;2023-05-22T05:14:01;101057.16;;;29.85;34.53
60371;BME280;48550;40.588;49.684;2023-05-22T05:16:27;101058.44;;;30.03;34.33
60371;BME280;48550;40.588;49.684;2023-05-22T05:18:52;101063.72;;;30.08;33.94
60371;BME280;48550;40.588;49.684;2023-05-22T05:21:19;101062.31;;;30.61;33.70
60371;BME280;48550;40.588;49.684;2023-05-22T05:23:46;101064.47;;;29.65;35.79
60371;BME280;48550;40.588;49.684;2023-05-22T05:26:12;101055.63;;;29.59;36.86
60371;BME280;48550;40.588;49.684;2023-05-22T05:28:38;101054.91;;;29.34;37.99
60371;BME280;48550;40.588;49.684;2023-05-22T05:31:04;101053.84;;;28.74;43.58
60371;BME280;48550;40.588;49.684;2023-05-22T05:33:29;101055.72;;;28.70;41.67
60371;BME280;48550;40.588;49.684;2023-05-22T05:35:55;101056.50;;;28.95;41.52
60371;BME280;48550;40.588;49.684;2023-05-22T05:38:21;101052.19;;;29.22;44.66
60371;BME280;48550;40.588;49.684;2023-05-22T05:40:47;101054.56;;;28.35;49.78
60371;BME280;48550;40.588;49.684;2023-05-22T05:43:13;101066.88;;;28.74;48.13
60371;BME280;48550;40.588;49.684;2023-05-22T05:45:40;101065.63;;;28.35;48.80
60371;BME280;48550;40.588;49.684;2023-05-22T05:48:06;101059.16;;;29.04;45.30
60371;BME280;48550;40.588;49.684;2023-05-22T05:50:32;101056.88;;;28.57;43.21
60371;BME280;48550;40.588;49.684;2023-05-22T05:52:58;101054.34;;;28.40;44.64
60371;BME280;48550;40.588;49.684;2023-05-22T05:55:23;101061.06;;;27.73;45.45
60371;BME280;48550;40.588;49.684;2023-05-22T05:57:49;101063.13;;;26.92;48.76
60371;BME280;48550;40.588;49.684;2023-05-22T06:00:16;101068.91;;;26.41;50.09
60371;BME280;48550;40.588;49.684;2023-05-22T06:02:42;101059.28;;;26.55;51.65
60371;BME280;48550;40.588;49.684;2023-05-22T06:05:08;101054.44;;;27.32;48.14
60371;BME280;48550;40.588;49.684;2023-05-22T06:07:34;101055.91;;;27.71;45.00
60371;BME280;48550;40.588;49.684;2023-05-22T06:10:05;101046.88;;;28.40;42.74
60371;BME280;48550;40.588;49.684;2023-05-22T06:12:31;101050.94;;;28.10;42.85
60371;BME280;48550;40.588;49.684;2023-05-22T06:14:57;101041.47;;;27.12;47.28
60371;BME280;48550;40.588;49.684;2023-05-22T06:17:23;101041.66;;;27.69;46.19
60371;BME280;48550;40.588;49.684;2023-05-22T06:19:49;101044.72;;;26.00;49.37
60371;BME280;48550;40.588;49.684;2023-05-22T06:22:15;101057.25;;;27.44;44.50
60371;BME280;48550;40.588;49.684;2023-05-22T06:24:41;101053.28;;;28.81;40.79
60371;BME280;48550;40.588;49.684;2023-05-22T06:27:06;101050.53;;;29.33;40.28
60371;BME280;48550;40.588;49.684;2023-05-22T06:29:32;101059.50;;;29.02;39.26
60371;BME280;48550;40.588;49.684;2023-05-22T06:31:58;101045.97;;;28.15;41.94
60371;BME280;48550;40.588;49.684;2023-05-22T06:34:24;101035.38;;;27.93;42.84
60371;BME280;48550;40.588;49.684;2023-05-22T06:36:50;101042.94;;;27.84;41.93
60371;BME280;48550;40.588;49.684;2023-05-22T06:39:20;101040.09;;;26.97;42.50
60371;BME280;48550;40.588;49.684;2023-05-22T06:41:46;101044.56;;;27.85;42.37
60371;BME280;48550;40.588;49.684;2023-05-22T06:44:11;101037.78;;;27.08;43.53
60371;BME280;48550;40.588;49.684;2023-05-22T06:46:37;101029.06;;;27.93;41.61
60371;BME280;48550;40.588;49.684;2023-05-22T06:49:03;101034.91;;;28.24;41.13
60371;BME280;48550;40.588;49.684;2023-05-22T06:51:29;101029.03;;;28.38;40.15
60371;BME280;48550;40.588;49.684;2023-05-22T06:53:56;101035.94;;;28.56;40.42
60371;BME280;48550;40.588;49.684;2023-05-22T06:56:21;101028.50;;;28.97;39.22
60371;BME280;48550;40.588;49.684;2023-05-22T06:58:49;101026.56;;;27.13;44.04
60371;BME280;48550;40.588;49.684;2023-05-22T07:01:14;101031.31;;;27.04;43.34
60371;BME280;48550;40.588;49.684;2023-05-22T07:03:40;101033.66;;;25.44;51.12
60371;BME280;48550;40.588;49.684;2023-05-22T07:06:06;101031.06;;;25.13;59.42
60371;BME280;48550;40.588;49.684;2023-05-22T07:08:32;101040.78;;;26.26;53.47
60371;BME280;48550;40.588;49.684;2023-05-22T07:10:58;101044.66;;;26.93;48.53
60371;BME280;48550;40.588;49.684;2023-05-22T07:13:26;101042.47;;;27.28;46.61
60371;BME280;48550;40.588;49.684;2023-05-22T07:15:52;101048.09;;;26.60;49.39
60371;BME280;48550;40.588;49.684;2023-05-22T07:18:18;101039.19;;;27.14;48.85
60371;BME280;48550;40.588;49.684;2023-05-22T07:20:44;101039.97;;;25.45;51.50
60371;BME280;48550;40.588;49.684;2023-05-22T07:23:10;101044.00;;;25.47;52.37
60371;BME280;48550;40.588;49.684;2023-05-22T07:25:35;101040.63;;;26.23;48.95
60371;BME280;48550;40.588;49.684;2023-05-22T07:28:01;101046.88;;;27.41;47.43
60371;BME280;48550;40.588;49.684;2023-05-22T07:30:34;101034.59;;;27.39;46.32
60371;BME280;48550;40.588;49.684;2023-05-22T07:33:00;101038.34;;;26.92;45.96
60371;BME280;48550;40.588;49.684;2023-05-22T07:35:26;101040.50;;;26.19;48.24
60371;BME280;48550;40.588;49.684;2023-05-22T07:37:51;101043.19;;;25.73;50.81
60371;BME280;48550;40.588;49.684;2023-05-22T07:40:17;101033.53;;;25.32;50.16
60371;BME280;48550;40.588;49.684;2023-05-22T07:42:43;101034.63;;;25.14;51.98
60371;BME280;48550;40.588;49.684;2023-05-22T07:45:09;101028.56;;;24.60;49.48
60371;BME280;48550;40.588;49.684;2023-05-22T07:47:35;101032.28;;;24.73;50.59
60371;BME280;48550;40.588;49.684;2023-05-22T07:50:01;101029.91;;;23.78;53.62
60371;BME280;48550;40.588;49.684;2023-05-22T07:52:29;101029.19;;;22.78;62.53
60371;BME280;48550;40.588;49.684;2023-05-22T07:54:56;101036.72;;;22.86;65.83
60371;BME280;48550;40.588;49.684;2023-05-22T07:57:22;101032.31;;;23.12;67.19
60371;BME280;48550;40.588;49.684;2023-05-22T07:59:48;101036.91;;;22.62;68.65
60371;BME280;48550;40.588;49.684;2023-05-22T08:02:16;101039.97;;;22.33;81.67
60371;BME280;48550;40.588;49.684;2023-05-22T08:04:42;101026.59;;;22.45;68.14
60371;BME280;48550;40.588;49.684;2023-05-22T08:07:09;101031.88;;;22.56;64.52
60371;BME280;48550;40.588;49.684;2023-05-22T08:09:35;101032.56;;;22.61;68.13
60371;BME280;48550;40.588;49.684;2023-05-22T08:12:01;101030.75;;;22.43;71.43
60371;BME280;48550;40.588;49.684;2023-05-22T08:14:27;101030.31;;;22.08;77.33
60371;BME280;48550;40.588;49.684;2023-05-22T08:16:53;101020.28;;;22.04;66.85
60371;BME280;48550;40.588;49.684;2023-05-22T08:19:19;101027.94;;;22.02;74.42
60371;BME280;48550;40.588;49.684;2023-05-22T08:21:44;101024.53;;;21.64;76.86
60371;BME280;48550;40.588;49.684;2023-05-22T08:24:10;101027.66;;;22.03;71.90
60371;BME280;48550;40.588;49.684;2023-05-22T08:26:36;101020.16;;;21.63;61.61
60371;BME280;48550;40.588;49.684;2023-05-22T08:29:03;101017.53;;;22.04;62.03
60371;BME280;48550;40.588;49.684;2023-05-22T08:31:28;101023.31;;;22.16;59.91
60371;BME280;48550;40.588;49.684;2023-05-22T08:33:55;101018.28;;;22.50;58.45
60371;BME280;48550;40.588;49.684;2023-05-22T08:36:28;101011.09;;;22.55;57.84
60371;BME280;48550;40.588;49.684;2023-05-22T08:38:55;101009.66;;;22.57;54.76
60371;BME280;48550;40.588;49.684;2023-05-22T08:41:21;101006.97;;;22.30;55.94
60371;BME280;48550;40.588;49.684;2023-05-22T08:43:47;101008.75;;;22.20;53.54
60371;BME280;48550;40.588;49.684;2023-05-22T08:46:12;101007.47;;;22.32;52.59
60371;BME280;48550;40.588;49.684;2023-05-22T08:48:40;101010.41;;;22.35;53.85
60371;BME280;48550;40.588;49.684;2023-05-22T08:51:07;101009.34;;;22.04;57.75
60371;BME280;48550;40.588;49.684;2023-05-22T08:53:36;101017.53;;;22.04;56.39
60371;BME280;48550;40.588;49.684;2023-05-22T08:56:04;101010.09;;;21.91;57.59
60371;BME280;48550;40.588;49.684;2023-05-22T08:58:35;101005.91;;;22.26;57.15
60371;BME280;48550;40.588;49.684;2023-05-22T09:01:02;101015.56;;;21.91;59.36
60371;BME280;48550;40.588;49.684;2023-05-22T09:03:29;101012.53;;;21.78;57.90
60371;BME280;48550;40.588;49.684;2023-05-22T09:05:57;101011.47;;;21.61;59.98
60371;BME280;48550;40.588;49.684;2023-05-22T09:08:24;101011.47;;;21.61;62.39
60371;BME280;48550;40.588;49.684;2023-05-22T09:10:50;101018.69;;;21.51;64.71
60371;BME280;48550;40.588;49.684;2023-05-22T09:13:37;101021.88;;;21.59;68.26
60371;BME280;48550;40.588;49.684;2023-05-22T09:16:10;101023.06;;;21.34;70.19
60371;BME280;48550;40.588;49.684;2023-05-22T09:18:37;101015.59;;;21.20;76.18
60371;BME280;48550;40.588;49.684;2023-05-22T09:21:05;101027.06;;;21.22;70.08
60371;BME280;48550;40.588;49.684;2023-05-22T09:23:31;101030.47;;;21.33;68.94
60371;BME280;48550;40.588;49.684;2023-05-22T09:25:58;101030.13;;;21.72;77.94
60371;BME280;48550;40.588;49.684;2023-05-22T09:28:25;101031.44;;;22.21;69.07
60371;BME280;48550;40.588;49.684;2023-05-22T09:30:52;101029.91;;;22.29;68.95
60371;BME280;48550;40.588;49.684;2023-05-22T09:33:21;101043.41;;;22.52;63.41
60371;BME280;48550;40.588;49.684;2023-05-22T09:35:47;101038.25;;;22.51;59.16
60371;BME280;48550;40.588;49.684;2023-05-22T09:38:14;101039.53;;;22.26;64.49
60371;BME280;48550;40.588;49.684;2023-05-22T09:40:41;101036.31;;;22.38;62.24
60371;BME280;48550;40.588;49.684;2023-05-22T09:43:10;101046.06;;;22.30;62.60
60371;BME280;48550;40.588;49.684;2023-05-22T09:45:37;101042.59;;;22.38;70.12
60371;BME280;48550;40.588;49.684;2023-05-22T09:48:04;101054.22;;;22.16;72.76
60371;BME280;48550;40.588;49.684;2023-05-22T09:50:31;101046.22;;;22.20;66.69
60371;BME280;48550;40.588;49.684;2023-05-22T09:53:00;101053.81;;;22.23;71.79
60371;BME280;48550;40.588;49.684;2023-05-22T09:55:27;101056.34;;;21.87;71.79
60371;BME280;48550;40.588;49.684;2023-05-22T09:57:54;101061.88;;;21.68;76.75
60371;BME280;48550;40.588;49.684;2023-05-22T10:00:22;101064.22;;;21.75;81.05
60371;BME280;48550;40.588;49.684;2023-05-22T10:03:01;101074.25;;;21.79;84.12
60371;BME280;48550;40.588;49.684;2023-05-22T10:05:30;101082.41;;;21.47;80.72
60371;BME280;48550;40.588;49.684;2023-05-22T10:08:02;101090.81;;;21.32;75.20
60371;BME280;48550;40.588;49.684;2023-05-22T10:10:29;101080.31;;;20.53;96.14
60371;BME280;48550;40.588;49.684;2023-05-22T10:15:25;101078.00;;;20.66;100.00
60371;BME280;48550;40.588;49.684;2023-05-22T10:17:51;101080.00;;;20.31;100.00
60371;BME280;48550;40.588;49.684;2023-05-22T10:20:18;101080.53;;;20.33;100.00
60371;BME280;48550;40.588;49.684;2023-05-22T10:22:45;101085.44;;;20.31;100.00
60371;BME280;48550;40.588;49.684;2023-05-22T10:25:13;101079.28;;;20.73;100.00
60371;BME280;48550;40.588;49.684;2023-05-22T10:27:39;101091.75;;;20.55;100.00
60371;BME280;48550;40.588;49.684;2023-05-22T10:35:28;101092.09;;;20.49;100.00
60371;BME280;48550;40.588;49.684;2023-05-22T10:38:10;101098.78;;;20.61;100.00
60371;BME280;48550;40.588;49.684;2023-05-22T10:40:39;101099.69;;;20.76;100.00
60371;BME280;48550;40.588;49.684;2023-05-22T10:43:06;101098.06;;;20.75;100.00
60371;BME280;48550;40.588;49.684;2023-05-22T10:45:32;101101.09;;;20.73;100.00
60371;BME280;48550;40.588;49.684;2023-05-22T10:50:27;101107.94;;;20.47;100.00
60371;BME280;48550;40.588;49.684;2023-05-22T10:53:26;101105.50;;;20.16;100.00
60371;BME280;48550;40.588;49.684;2023-05-22T10:55:56;101105.09;;;20.57;100.00
60371;BME280;48550;40.588;49.684;2023-05-22T11:01:07;101110.31;;;20.53;100.00
60371;BME280;48550;40.588;49.684;2023-05-22T11:06:46;101107.81;;;20.57;100.00
60371;BME280;48550;40.588;49.684;2023-05-22T11:09:33;101112.00;;;20.49;100.00
60371;BME280;48550;40.588;49.684;2023-05-22T11:12:18;101106.34;;;20.12;100.00
60371;BME280;48550;40.588;49.684;2023-05-22T11:22:39;101099.97;;;19.92;100.00
60371;BME280;48550;40.588;49.684;2023-05-22T11:25:18;101101.91;;;19.48;100.00
60371;BME280;48550;40.588;49.684;2023-05-22T11:27:46;101097.31;;;19.82;100.00
60371;BME280;48550;40.588;49.684;2023-05-22T11:30:13;101101.03;;;19.62;100.00
60371;BME280;48550;40.588;49.684;2023-05-22T11:32:40;101100.00;;;19.87;100.00
60371;BME280;48550;40.588;49.684;2023-05-22T11:35:21;101096.34;;;20.02;100.00
60371;BME280;48550;40.588;49.684;2023-05-22T11:37:48;101091.28;;;20.19;100.00
60371;BME280;48550;40.588;49.684;2023-05-22T11:40:16;101094.22;;;19.94;100.00
60371;BME280;48550;40.588;49.684;2023-05-22T11:42:42;101104.88;;;19.90;100.00
60371;BME280;48550;40.588;49.684;2023-05-22T11:45:09;101103.69;;;20.02;100.00
60371;BME280;48550;40.588;49.684;2023-05-22T11:47:36;101109.38;;;20.05;100.00
60371;BME280;48550;40.588;49.684;2023-05-22T11:50:02;101104.31;;;19.93;100.00
60371;BME280;48550;40.588;49.684;2023-05-22T11:52:32;101112.97;;;20.00;100.00
60371;BME280;48550;40.588;49.684;2023-05-22T11:54:58;101109.28;;;19.86;100.00
60371;BME280;48550;40.588;49.684;2023-05-22T11:57:24;101101.63;;;19.88;100.00
60371;BME280;48550;40.588;49.684;2023-05-22T11:59:50;101114.47;;;19.83;100.00
60371;BME280;48550;40.588;49.684;2023-05-22T12:02:17;101112.31;;;19.41;100.00
60371;BME280;48550;40.588;49.684;2023-05-22T12:04:43;101110.97;;;19.38;100.00
60371;BME280;48550;40.588;49.684;2023-05-22T12:07:09;101110.13;;;19.43;100.00
60371;BME280;48550;40.588;49.684;2023-05-22T12:09:38;101108.63;;;19.65;100.00
60371;BME280;48550;40.588;49.684;2023-05-22T12:12:04;101107.19;;;19.29;100.00
60371;BME280;48550;40.588;49.684;2023-05-22T12:14:30;101110.72;;;19.29;100.00
60371;BME280;48550;40.588;49.684;2023-05-22T12:17:01;101109.47;;;19.07;100.00
60371;BME280;48550;40.588;49.684;2023-05-22T12:19:29;101112.66;;;19.24;100.00
60371;BME280;48550;40.588;49.684;2023-05-22T12:21:55;101107.25;;;19.19;100.00
60371;BME280;48550;40.588;49.684;2023-05-22T12:24:20;101129.88;;;19.09;100.00
60371;BME280;48550;40.588;49.684;2023-05-22T12:26:54;101115.34;;;19.29;100.00
60371;BME280;48550;40.588;49.684;2023-05-22T12:29:21;101119.69;;;19.30;100.00
60371;BME280;48550;40.588;49.684;2023-05-22T12:31:47;101124.31;;;19.34;100.00
60371;BME280;48550;40.588;49.684;2023-05-22T12:34:14;101109.63;;;19.35;100.00
60371;BME280;48550;40.588;49.684;2023-05-22T12:36:43;101116.06;;;19.50;100.00
60371;BME280;48550;40.588;49.684;2023-05-22T12:39:14;101114.53;;;19.28;100.00
60371;BME280;48550;40.588;49.684;2023-05-22T12:41:41;101114.06;;;19.11;100.00
60371;BME280;48550;40.588;49.684;2023-05-22T12:44:07;101113.78;;;19.18;100.00
60371;BME280;48550;40.588;49.684;2023-05-22T12:46:32;101108.91;;;19.10;100.00
60371;BME280;48550;40.588;49.684;2023-05-22T12:48:59;101115.25;;;18.95;100.00
60371;BME280;48550;40.588;49.684;2023-05-22T12:51:27;101117.06;;;19.10;100.00
60371;BME280;48550;40.588;49.684;2023-05-22T12:53:57;101104.03;;;19.07;100.00
60371;BME280;48550;40.588;49.684;2023-05-22T12:56:22;101110.25;;;19.12;100.00
60371;BME280;48550;40.588;49.684;2023-05-22T12:58:48;101116.81;;;19.11;100.00
60371;BME280;48550;40.588;49.684;2023-05-22T13:01:14;101115.50;;;18.98;100.00
60371;BME280;48550;40.588;49.684;2023-05-22T13:03:40;101115.75;;;19.02;100.00
60371;BME280;48550;40.588;49.684;2023-05-22T13:06:06;101118.53;;;18.92;100.00
60371;BME280;48550;40.588;49.684;2023-05-22T13:08:32;101113.31;;;19.00;100.00
60371;BME280;48550;40.588;49.684;2023-05-22T13:10:57;101113.50;;;19.19;100.00
60371;BME280;48550;40.588;49.684;2023-05-22T13:13:23;101116.78;;;19.16;100.00
60371;BME280;48550;40.588;49.684;2023-05-22T13:15:49;101112.41;;;19.20;100.00
60371;BME280;48550;40.588;49.684;2023-05-22T13:18:15;101112.94;;;19.22;100.00